Westville Lake, Ohio
Current Conditions -  °F | °C
As of 6:51 AM on Friday 28 Nov 2014 (Local Time) from KCAK Reporting Station
Broken Clouds Broken Clouds  
Wind Chill: 11°   Ceiling: 4000
Heat Index: 20°   Visibility: 10mi
Dew Point: 12°   Wind: 7mph
Humidity: 71%   Direction: 280°W
Pressure: 30.31"   Gusts: NA
Location:  40.915°N, 80.9865°W
Report Text: KCAK 281151Z 28006KT 10SM BKN040 M07/M11 A3031 RMK AO2 SLP282 60001 70013 4/001 T10671111 11022 21067 51013
Loading
Personal Weather Stations






























Interactive Weather Map New forecast layout! Learn more

10-Day Weather Forecast

Advertisements
Track Severe Weather on mobile